EGXW

RAF Waddington Airport

Waddington, United Kingdom
METAR EGXW 181450Z 26005KT 9999 FEW015 FEW018CB BKN100 04/02 Q0999 BLU TEMPO -SHRA SCT018CB WHT
Observed Flight Rules
Jan-18 @ 14:50 UTC (45 minutes ago) Visual Flight Rules
Wind Visibility Clouds
260° at 5 knots 10,000+ meters
  • Few at 1,500' AGL
  • Few at 1,800' AGL
  • Broken at 10,000' AGL
Temperatures Readings
Current 4°C / 39°F
Dewpoint 2°C / 36°F
Humidity 87%
Altimeter 29.5" Hg
Pressure 999 hPa
Elevation 70
METAR EGXW 181450Z 26005KT 9999 FEW015 FEW018CB BKN100 04/02 Q0999 BLU TEMPO -SHRA SCT018CB WHT
Observed Flight Rules
Jan-18 @ 14:50 UTC
(45 minutes ago)
VFR
Wind Visibility
260° at 5 knots 10,000+ meters
Clouds
  • Few at 1,500' AGL
  • Few at 1,800' AGL
  • Broken at 10,000' AGL
Temperature Dewpoint
4°C / 39°F 2°C / 36°F
Humidity Altimeter Pressure
87% 29.5" Hg 999 hPa